Time,TemperatureF,DewpointF,PressureIn,WindDirection,WindDirectionDegrees,WindSpeedMPH,WindSpeedGustMPH,Humidity,HourlyPrecipIn,Conditions,Clouds,dailyrainin,SoftwareType,DateUTC
2013-02-18 00:00:00,39.6,35.5,30.34,South,180,0.0,0.0,85,0.00,,---,0.00,VWS V14.01,2013-02-18 08:00:00,
2013-02-18 00:05:00,39.4,35.6,30.34,South,180,0.0,0.0,86,0.00,,---,0.00,VWS V14.01,2013-02-18 08:05:00,
2013-02-18 00:10:00,39.4,35.6,30.34,South,180,0.0,0.0,86,0.00,,---,0.00,VWS V14.01,2013-02-18 08:10:00,
2013-02-18 00:15:00,39.4,35.6,30.33,South,180,0.0,0.0,86,0.00,,---,0.00,VWS V14.01,2013-02-18 08:15:00,
2013-02-18 00:20:00,39.4,35.6,30.33,South,180,0.0,0.0,86,0.00,,---,0.00,VWS V14.01,2013-02-18 08:20:00,
2013-02-18 00:25:00,39.2,35.4,30.33,South,180,0.0,0.0,86,0.00,,---,0.00,VWS V14.01,2013-02-18 08:25:00,
2013-02-18 00:30:00,39.2,35.4,30.33,South,180,0.0,0.0,86,0.00,,---,0.00,VWS V14.01,2013-02-18 08:30:00,
2013-02-18 00:35:00,39.2,35.4,30.33,South,180,0.0,0.0,86,0.00,,---,0.00,VWS V14.01,2013-02-18 08:35:00,
2013-02-18 00:40:00,39.1,35.6,30.32,South,180,0.0,0.0,87,0.00,,---,0.00,VWS V14.01,2013-02-18 08:40:00,
2013-02-18 00:45:00,38.9,35.4,30.32,South,180,0.0,0.0,87,0.00,,---,0.00,VWS V14.01,2013-02-18 08:45:00,
2013-02-18 00:49:00,38.9,35.4,30.32,South,180,0.0,0.0,87,0.00,,---,0.00,VWS V14.01,2013-02-18 08:49:00,
2013-02-18 00:54:00,38.7,35.2,30.32,South,180,0.0,0.0,87,0.00,,---,0.00,VWS V14.01,2013-02-18 08:54:00,
2013-02-18 00:59:00,38.5,35.0,30.32,South,180,0.0,0.0,87,0.00,,---,0.00,VWS V14.01,2013-02-18 08:59:00,
2013-02-18 01:04:00,38.5,35.0,30.31,South,180,0.0,0.0,87,0.00,,---,0.00,VWS V14.01,2013-02-18 09:04:00,
2013-02-18 01:09:00,38.3,34.8,30.31,South,180,0.0,0.0,87,0.00,,---,0.00,VWS V14.01,2013-02-18 09:09:00,
2013-02-18 01:14:00,38.2,34.7,30.31,South,180,0.0,0.0,87,0.00,,---,0.00,VWS V14.01,2013-02-18 09:14:00,
2013-02-18 01:19:00,38.0,34.5,30.31,South,180,0.0,0.0,87,0.00,,---,0.00,VWS V14.01,2013-02-18 09:19:00,
2013-02-18 01:24:00,38.0,34.5,30.31,South,180,0.0,0.0,87,0.00,,---,0.00,VWS V14.01,2013-02-18 09:24:00,
2013-02-18 01:29:00,37.8,34.3,30.30,South,180,0.0,0.0,87,0.00,,---,0.00,VWS V14.01,2013-02-18 09:29:00,
2013-02-18 01:34:00,37.8,34.3,30.30,South,180,0.0,0.0,87,0.00,,---,0.00,VWS V14.01,2013-02-18 09:34:00,
2013-02-18 01:39:00,37.6,34.1,30.30,South,180,0.2,0.2,87,0.00,,---,0.00,VWS V14.01,2013-02-18 09:39:00,
2013-02-18 01:44:00,37.4,33.9,30.30,South,180,0.0,0.0,87,0.00,,---,0.00,VWS V14.01,2013-02-18 09:44:00,
2013-02-18 01:49:00,37.3,33.8,30.30,South,180,0.0,0.0,87,0.00,,---,0.00,VWS V14.01,2013-02-18 09:49:00,
2013-02-18 01:54:00,37.1,33.6,30.30,South,180,0.0,0.0,87,0.00,,---,0.00,VWS V14.01,2013-02-18 09:54:00,
2013-02-18 01:59:00,37.1,33.6,30.30,South,180,0.0,0.0,87,0.00,,---,0.00,VWS V14.01,2013-02-18 09:59:00,
2013-02-18 02:04:00,36.9,33.7,30.30,South,180,0.0,0.4,88,0.00,,---,0.00,VWS V14.01,2013-02-18 10:04:00,
2013-02-18 02:09:00,36.9,33.7,30.30,South,180,0.7,0.7,88,0.00,,---,0.00,VWS V14.01,2013-02-18 10:09:00,
2013-02-18 02:14:00,37.1,33.9,30.30,South,180,0.0,0.0,88,0.00,,---,0.00,VWS V14.01,2013-02-18 10:14:00,
2013-02-18 02:19:00,36.9,33.7,30.30,South,180,0.0,0.2,88,0.00,,---,0.00,VWS V14.01,2013-02-18 10:19:00,
2013-02-18 02:24:00,36.9,33.7,30.29,South,180,0.0,0.0,88,0.00,,---,0.00,VWS V14.01,2013-02-18 10:24:00,
2013-02-18 02:29:00,36.7,33.2,30.29,South,180,0.0,0.0,87,0.00,,---,0.00,VWS V14.01,2013-02-18 10:29:00,
2013-02-18 02:34:00,36.5,33.0,30.29,South,180,0.0,0.0,87,0.00,,---,0.00,VWS V14.01,2013-02-18 10:34:00,
2013-02-18 02:39:00,36.5,33.0,30.29,South,180,0.0,0.0,87,0.00,,---,0.00,VWS V14.01,2013-02-18 10:39:00,
2013-02-18 02:44:00,36.5,33.0,30.29,South,180,0.0,0.0,87,0.00,,---,0.00,VWS V14.01,2013-02-18 10:44:00,
2013-02-18 02:49:00,36.5,33.0,30.28,South,180,0.0,0.0,87,0.00,,---,0.00,VWS V14.01,2013-02-18 10:49:00,
2013-02-18 02:55:00,36.5,33.0,30.28,South,180,0.0,0.0,87,0.00,,---,0.00,VWS V14.01,2013-02-18 10:55:00,
2013-02-18 03:00:00,36.4,32.9,30.28,South,180,0.0,0.0,87,0.00,,---,0.00,VWS V14.01,2013-02-18 11:00:00,
2013-02-18 03:05:00,36.4,32.9,30.28,South,180,0.0,0.0,87,0.00,,---,0.00,VWS V14.01,2013-02-18 11:05:00,
2013-02-18 03:10:00,36.4,33.2,30.28,South,180,0.0,0.0,88,0.00,,---,0.00,VWS V14.01,2013-02-18 11:10:00,
2013-02-18 03:15:00,36.4,33.2,30.28,South,180,0.0,0.0,88,0.00,,---,0.00,VWS V14.01,2013-02-18 11:15:00,
2013-02-18 03:20:00,36.4,33.2,30.27,South,180,0.0,0.0,88,0.00,,---,0.00,VWS V14.01,2013-02-18 11:20:00,
2013-02-18 03:25:00,36.4,33.2,30.27,South,180,0.0,0.0,88,0.00,,---,0.00,VWS V14.01,2013-02-18 11:25:00,
2013-02-18 03:30:00,36.4,33.2,30.27,South,180,0.0,0.0,88,0.00,,---,0.00,VWS V14.01,2013-02-18 11:30:00,
2013-02-18 03:34:00,36.4,33.2,30.27,South,180,0.0,0.0,88,0.00,,---,0.00,VWS V14.01,2013-02-18 11:34:00,
2013-02-18 03:39:00,36.4,33.2,30.27,South,180,0.0,0.0,88,0.00,,---,0.00,VWS V14.01,2013-02-18 11:39:00,
2013-02-18 03:44:00,36.4,33.2,30.27,South,180,0.0,0.0,88,0.00,,---,0.00,VWS V14.01,2013-02-18 11:44:00,
2013-02-18 03:49:00,36.4,33.2,30.27,South,180,0.0,0.0,88,0.00,,---,0.00,VWS V14.01,2013-02-18 11:49:00,
2013-02-18 03:54:00,36.2,33.0,30.27,South,180,0.0,0.0,88,0.00,,---,0.00,VWS V14.01,2013-02-18 11:54:00,
2013-02-18 03:59:00,36.2,33.0,30.27,South,180,0.0,0.0,88,0.00,,---,0.00,VWS V14.01,2013-02-18 11:59:00,
2013-02-18 04:04:00,36.4,33.2,30.26,South,180,0.0,0.0,88,0.00,,---,0.00,VWS V14.01,2013-02-18 12:04:00,
2013-02-18 04:09:00,36.2,33.0,30.26,South,180,0.0,0.0,88,0.00,,---,0.00,VWS V14.01,2013-02-18 12:09:00,
2013-02-18 04:15:00,36.2,33.0,30.25,South,180,0.0,0.0,88,0.00,,---,0.00,VWS V14.01,2013-02-18 12:15:00,
2013-02-18 04:20:00,36.2,33.0,30.25,South,180,0.0,0.0,88,0.00,,---,0.00,VWS V14.01,2013-02-18 12:20:00,
2013-02-18 04:25:00,36.2,33.0,30.25,South,180,0.0,0.0,88,0.00,,---,0.00,VWS V14.01,2013-02-18 12:25:00,
2013-02-18 04:30:00,36.0,32.8,30.25,South,180,0.0,0.0,88,0.00,,---,0.00,VWS V14.01,2013-02-18 12:30:00,
2013-02-18 04:35:00,36.2,33.0,30.25,South,180,0.0,0.0,88,0.00,,---,0.00,VWS V14.01,2013-02-18 12:35:00,
2013-02-18 04:40:00,36.0,32.8,30.25,South,180,0.0,0.0,88,0.00,,---,0.00,VWS V14.01,2013-02-18 12:40:00,
2013-02-18 04:45:00,36.0,33.1,30.24,South,180,0.0,0.0,89,0.00,,---,0.00,VWS V14.01,2013-02-18 12:45:00,
2013-02-18 04:50:00,36.0,33.1,30.24,South,180,0.0,0.4,89,0.00,,---,0.00,VWS V14.01,2013-02-18 12:50:00,
2013-02-18 04:55:00,36.0,33.1,30.24,South,180,0.0,0.0,89,0.00,,---,0.00,VWS V14.01,2013-02-18 12:55:00,
2013-02-18 05:00:00,36.0,33.1,30.24,South,180,0.0,0.0,89,0.00,,---,0.00,VWS V14.01,2013-02-18 13:00:00,
2013-02-18 05:05:00,36.0,33.1,30.25,South,180,0.0,0.0,89,0.00,,---,0.00,VWS V14.01,2013-02-18 13:05:00,
2013-02-18 05:10:00,36.0,33.1,30.24,South,180,0.0,0.0,89,0.00,,---,0.00,VWS V14.01,2013-02-18 13:10:00,
2013-02-18 05:15:00,36.0,33.1,30.24,South,180,0.0,0.0,89,0.00,,---,0.00,VWS V14.01,2013-02-18 13:15:00,
2013-02-18 05:20:00,36.2,33.3,30.24,South,180,0.0,0.0,89,0.00,,---,0.00,VWS V14.01,2013-02-18 13:20:00,
2013-02-18 05:25:00,36.2,33.3,30.24,South,180,0.0,0.0,89,0.00,,---,0.00,VWS V14.01,2013-02-18 13:25:00,
2013-02-18 05:30:00,36.2,33.3,30.24,South,180,0.0,0.0,89,0.00,,---,0.00,VWS V14.01,2013-02-18 13:30:00,
2013-02-18 05:35:00,36.2,33.3,30.24,South,180,0.0,0.0,89,0.00,,---,0.00,VWS V14.01,2013-02-18 13:35:00,
2013-02-18 05:40:00,36.2,33.3,30.23,South,180,0.0,0.0,89,0.00,,---,0.00,VWS V14.01,2013-02-18 13:40:00,
2013-02-18 05:45:00,36.0,33.1,30.24,South,180,0.0,0.0,89,0.00,,---,0.00,VWS V14.01,2013-02-18 13:45:00,
2013-02-18 05:50:00,36.0,33.1,30.24,South,180,0.0,0.0,89,0.00,,---,0.00,VWS V14.01,2013-02-18 13:50:00,
2013-02-18 05:55:00,36.0,33.1,30.24,South,180,0.0,0.0,89,0.00,,---,0.00,VWS V14.01,2013-02-18 13:55:00,
2013-02-18 06:00:00,36.0,33.1,30.24,South,180,0.0,0.0,89,0.00,,---,0.00,VWS V14.01,2013-02-18 14:00:00,
2013-02-18 06:05:00,35.8,32.9,30.24,South,180,0.0,0.0,89,0.00,,---,0.00,VWS V14.01,2013-02-18 14:05:00,
2013-02-18 06:10:00,35.6,32.7,30.24,South,180,0.0,0.0,89,0.00,,---,0.00,VWS V14.01,2013-02-18 14:10:00,
2013-02-18 06:15:00,35.6,32.7,30.24,South,180,0.0,0.0,89,0.00,,---,0.00,VWS V14.01,2013-02-18 14:15:00,
2013-02-18 06:20:00,35.6,32.7,30.24,South,180,0.0,0.0,89,0.00,,---,0.00,VWS V14.01,2013-02-18 14:20:00,
2013-02-18 06:25:00,35.6,32.7,30.23,South,180,0.0,0.0,89,0.00,,---,0.00,VWS V14.01,2013-02-18 14:25:00,
2013-02-18 06:30:00,35.6,32.7,30.23,South,180,0.0,0.0,89,0.00,,---,0.00,VWS V14.01,2013-02-18 14:30:00,
2013-02-18 06:35:00,35.6,32.7,30.23,South,180,0.0,0.0,89,0.00,,---,0.00,VWS V14.01,2013-02-18 14:35:00,
2013-02-18 06:40:00,35.6,32.7,30.23,South,180,0.0,0.0,89,0.00,,---,0.00,VWS V14.01,2013-02-18 14:40:00,
2013-02-18 06:45:00,35.6,32.7,30.23,South,180,0.0,0.0,89,0.00,,---,0.00,VWS V14.01,2013-02-18 14:45:00,
2013-02-18 06:50:00,35.6,32.7,30.23,South,180,0.0,0.0,89,0.00,,---,0.00,VWS V14.01,2013-02-18 14:50:00,
2013-02-18 06:55:00,35.5,32.6,30.23,South,180,0.0,0.0,89,0.00,,---,0.00,VWS V14.01,2013-02-18 14:55:00,
2013-02-18 07:00:00,35.5,32.6,30.23,South,180,0.0,0.0,89,0.00,,---,0.00,VWS V14.01,2013-02-18 15:00:00,
2013-02-18 07:05:00,35.3,32.4,30.23,South,180,0.0,0.4,89,0.00,,---,0.00,VWS V14.01,2013-02-18 15:05:00,
2013-02-18 07:10:00,35.3,32.4,30.23,South,180,0.0,0.0,89,0.00,,---,0.00,VWS V14.01,2013-02-18 15:10:00,
2013-02-18 07:15:00,35.3,32.4,30.23,South,180,0.0,0.0,89,0.00,,---,0.00,VWS V14.01,2013-02-18 15:15:00,
2013-02-18 07:20:00,35.1,32.2,30.23,South,180,0.4,0.4,89,0.00,,---,0.00,VWS V14.01,2013-02-18 15:20:00,
2013-02-18 07:25:00,35.1,32.2,30.23,South,180,0.0,0.0,89,0.00,,---,0.00,VWS V14.01,2013-02-18 15:25:00,
2013-02-18 07:30:00,34.9,32.0,30.23,South,180,0.0,0.0,89,0.00,,---,0.00,VWS V14.01,2013-02-18 15:30:00,
2013-02-18 07:35:00,34.9,32.0,30.23,South,180,0.0,0.0,89,0.00,,---,0.00,VWS V14.01,2013-02-18 15:35:00,
2013-02-18 07:40:00,34.9,32.0,30.23,South,180,0.7,0.7,89,0.00,,---,0.00,VWS V14.01,2013-02-18 15:40:00,
2013-02-18 07:45:00,34.7,31.8,30.23,South,180,0.0,0.0,89,0.00,,---,0.00,VWS V14.01,2013-02-18 15:45:00,
2013-02-18 07:50:00,34.7,31.8,30.22,South,180,0.0,0.0,89,0.00,,---,0.00,VWS V14.01,2013-02-18 15:50:00,
2013-02-18 07:55:00,34.9,32.0,30.22,South,180,0.0,0.0,89,0.00,,---,0.00,VWS V14.01,2013-02-18 15:55:00,
2013-02-18 08:00:00,34.9,32.0,30.23,South,180,0.0,0.0,89,0.00,,---,0.00,VWS V14.01,2013-02-18 16:00:00,
2013-02-18 08:05:00,34.9,32.0,30.23,South,180,0.0,0.0,89,0.00,,---,0.00,VWS V14.01,2013-02-18 16:05:00,
2013-02-18 08:10:00,35.1,32.2,30.23,South,180,0.0,0.4,89,0.00,,---,0.00,VWS V14.01,2013-02-18 16:10:00,
2013-02-18 08:15:00,35.3,32.4,30.22,South,180,0.0,0.0,89,0.00,,---,0.00,VWS V14.01,2013-02-18 16:15:00,
2013-02-18 08:20:00,35.5,32.6,30.22,South,180,0.7,0.7,89,0.00,,---,0.00,VWS V14.01,2013-02-18 16:20:00,
2013-02-18 08:25:00,35.6,33.0,30.22,South,180,0.0,0.0,90,0.00,,---,0.00,VWS V14.01,2013-02-18 16:25:00,
2013-02-18 08:30:00,35.6,33.0,30.22,South,180,0.0,0.0,90,0.00,,---,0.00,VWS V14.01,2013-02-18 16:30:00,
2013-02-18 08:35:00,36.0,33.4,30.22,South,180,0.0,0.0,90,0.00,,---,0.00,VWS V14.01,2013-02-18 16:35:00,
2013-02-18 08:40:00,36.4,33.5,30.22,South,180,0.0,0.0,89,0.00,,---,0.00,VWS V14.01,2013-02-18 16:40:00,
2013-02-18 08:45:00,36.5,33.6,30.22,South,180,0.0,0.0,89,0.00,,---,0.00,VWS V14.01,2013-02-18 16:45:00,
2013-02-18 08:50:00,36.7,33.8,30.22,South,180,0.4,0.4,89,0.00,,---,0.02,VWS V14.01,2013-02-18 16:50:00,
2013-02-18 08:55:00,37.1,34.2,30.21,South,180,1.6,1.6,89,0.00,,---,0.00,VWS V14.01,2013-02-18 16:55:00,
2013-02-18 09:00:00,37.4,34.7,30.21,South,180,0.4,0.4,90,0.00,,---,0.00,VWS V14.01,2013-02-18 17:00:00,
2013-02-18 09:05:00,37.8,35.1,30.21,South,180,2.2,2.2,90,0.00,,---,0.00,VWS V14.01,2013-02-18 17:05:00,
2013-02-18 09:10:00,38.2,35.2,30.21,NNW,338,2.5,2.5,89,0.00,,---,0.00,VWS V14.01,2013-02-18 17:10:00,
2013-02-18 09:15:00,38.5,35.3,30.20,NNW,338,1.3,1.3,88,0.00,,---,0.00,VWS V14.01,2013-02-18 17:15:00,
2013-02-18 09:20:00,38.7,35.5,30.21,North,0,3.1,3.1,88,0.00,,---,0.00,VWS V14.01,2013-02-18 17:20:00,
2013-02-18 09:25:00,38.9,35.4,30.21,NNE,22,1.6,1.6,87,0.00,,---,0.00,VWS V14.01,2013-02-18 17:25:00,
2013-02-18 09:30:00,39.2,35.7,30.21,NNE,22,1.8,1.8,87,0.00,,---,0.00,VWS V14.01,2013-02-18 17:30:00,
2013-02-18 09:35:00,39.4,35.9,30.20,North,0,1.1,1.1,87,0.00,,---,0.00,VWS V14.01,2013-02-18 17:35:00,
2013-02-18 09:40:00,39.6,35.8,30.20,NNE,22,1.3,1.3,86,0.00,,---,0.00,VWS V14.01,2013-02-18 17:40:00,
2013-02-18 09:45:00,39.8,35.7,30.20,NNE,22,2.9,2.9,85,0.00,,---,0.00,VWS V14.01,2013-02-18 17:45:00,
2013-02-18 09:50:00,40.0,36.2,30.20,NNE,22,2.2,2.2,86,0.00,,---,0.00,VWS V14.01,2013-02-18 17:50:00,
2013-02-18 09:55:00,40.1,36.0,30.20,NE,45,2.7,4.0,85,0.00,,---,0.00,VWS V14.01,2013-02-18 17:55:00,
2013-02-18 10:00:00,40.3,36.2,30.20,NNE,22,2.0,2.0,85,0.00,,---,0.00,VWS V14.01,2013-02-18 18:00:00,
2013-02-18 10:05:00,40.5,36.0,30.20,North,0,0.0,1.6,84,0.00,,---,0.00,VWS V14.01,2013-02-18 18:05:00,
2013-02-18 10:10:00,40.9,36.5,30.20,NNE,22,0.7,0.7,84,0.00,,---,0.00,VWS V14.01,2013-02-18 18:10:00,
2013-02-18 10:15:00,41.0,36.5,30.20,NE,45,1.1,1.6,84,0.00,,---,0.00,VWS V14.01,2013-02-18 18:15:00,
2013-02-18 10:20:00,41.4,36.9,30.19,North,0,0.0,0.0,84,0.00,,---,0.00,VWS V14.01,2013-02-18 18:20:00,
2013-02-18 10:25:00,41.4,36.9,30.19,WNW,292,0.0,0.0,84,0.00,,---,0.00,VWS V14.01,2013-02-18 18:25:00,
2013-02-18 10:30:00,41.8,37.0,30.19,SW,225,0.0,0.0,83,0.00,,---,0.00,VWS V14.01,2013-02-18 18:30:00,
2013-02-18 10:35:00,41.9,37.1,30.19,WNW,292,0.0,0.0,83,0.00,,---,0.00,VWS V14.01,2013-02-18 18:35:00,
2013-02-18 10:40:00,41.9,37.4,30.19,NNE,22,0.0,0.0,84,0.00,,---,0.00,VWS V14.01,2013-02-18 18:40:00,
2013-02-18 10:45:00,42.3,37.8,30.19,NNE,22,0.2,0.2,84,0.00,,---,0.00,VWS V14.01,2013-02-18 18:45:00,
2013-02-18 10:50:00,42.5,37.7,30.19,NE,45,2.5,2.5,83,0.00,,---,0.00,VWS V14.01,2013-02-18 18:50:00,
2013-02-18 10:55:00,42.8,37.4,30.19,NNE,22,2.5,2.5,81,0.00,,---,0.00,VWS V14.01,2013-02-18 18:55:00,
2013-02-18 11:00:00,43.0,37.9,30.19,NE,45,2.0,2.0,82,0.00,,---,0.00,VWS V14.01,2013-02-18 19:00:00,
2013-02-18 11:05:00,43.2,38.1,30.19,SSE,158,0.0,0.2,82,0.00,,---,0.00,VWS V14.01,2013-02-18 19:05:00,
2013-02-18 11:10:00,43.4,38.0,30.19,NE,45,2.0,2.0,81,0.00,,---,0.00,VWS V14.01,2013-02-18 19:10:00,
2013-02-18 11:15:00,43.6,37.5,30.19,North,0,1.8,1.8,79,0.00,,---,0.00,VWS V14.01,2013-02-18 19:15:00,
2013-02-18 11:20:00,43.6,37.5,30.18,NNW,338,0.0,0.0,79,0.00,,---,0.00,VWS V14.01,2013-02-18 19:20:00,
2013-02-18 11:25:00,43.7,38.0,30.18,ENE,68,0.0,0.0,80,0.00,,---,0.00,VWS V14.01,2013-02-18 19:25:00,
2013-02-18 11:30:00,43.9,38.1,30.18,SE,135,0.0,0.0,80,0.00,,---,0.00,VWS V14.01,2013-02-18 19:30:00,
2013-02-18 11:35:00,44.1,38.3,30.18,SSE,158,0.0,0.0,80,0.00,,---,0.00,VWS V14.01,2013-02-18 19:35:00,
2013-02-18 11:40:00,44.3,38.2,30.18,NNW,338,0.0,0.0,79,0.00,,---,0.00,VWS V14.01,2013-02-18 19:40:00,
2013-02-18 11:45:00,44.3,38.2,30.18,SSW,202,0.0,0.0,79,0.00,,---,0.00,VWS V14.01,2013-02-18 19:45:00,
2013-02-18 11:50:00,44.5,37.8,30.17,South,180,0.7,0.7,77,0.00,,---,0.00,VWS V14.01,2013-02-18 19:50:00,
2013-02-18 11:55:00,44.5,35.7,30.17,South,180,0.0,0.0,71,0.00,,---,0.00,VWS V14.01,2013-02-18 19:55:00,
2013-02-18 12:00:00,44.6,36.5,30.17,South,180,0.4,1.8,73,0.00,,---,0.00,VWS V14.01,2013-02-18 20:00:00,
2013-02-18 12:05:00,44.8,36.3,30.17,South,180,2.5,2.5,72,0.00,,---,0.00,VWS V14.01,2013-02-18 20:05:00,
2013-02-18 12:10:00,45.0,36.5,30.17,South,180,2.5,2.5,72,0.00,,---,0.00,VWS V14.01,2013-02-18 20:10:00,
2013-02-18 12:15:00,45.0,36.9,30.17,South,180,2.2,2.2,73,0.00,,---,0.00,VWS V14.01,2013-02-18 20:15:00,
2013-02-18 12:20:00,45.4,36.2,30.17,South,180,0.4,0.4,70,0.00,,---,0.00,VWS V14.01,2013-02-18 20:20:00,
2013-02-18 12:25:00,45.4,36.6,30.17,South,180,0.4,0.4,71,0.00,,---,0.00,VWS V14.01,2013-02-18 20:25:00,
2013-02-18 12:30:00,45.4,35.5,30.17,South,180,2.5,2.5,68,0.00,,---,0.00,VWS V14.01,2013-02-18 20:30:00,
2013-02-18 12:35:00,45.5,35.9,30.17,South,180,1.8,2.0,69,0.00,,---,0.00,VWS V14.01,2013-02-18 20:35:00,
2013-02-18 12:40:00,45.5,36.3,30.16,South,180,0.4,0.4,70,0.00,,---,0.00,VWS V14.01,2013-02-18 20:40:00,
2013-02-18 12:46:00,46.1,36.5,30.16,South,180,0.2,0.2,69,0.00,,---,0.00,VWS V14.01,2013-02-18 20:46:00,
2013-02-18 12:50:00,46.1,36.9,30.16,South,180,0.4,0.7,70,0.00,,---,0.00,VWS V14.01,2013-02-18 20:50:00,
2013-02-18 12:55:00,46.4,37.2,30.16,South,180,0.4,0.4,70,0.00,,---,0.00,VWS V14.01,2013-02-18 20:55:00,
2013-02-18 13:00:00,46.4,36.4,30.15,South,180,0.4,0.4,68,0.00,,---,0.00,VWS V14.01,2013-02-18 21:00:00,
2013-02-18 13:01:00,46.4,36.0,30.16,South,180,0.4,0.4,67,0.00,,---,0.00,VWS V14.01,2013-02-18 21:01:00,
2013-02-18 13:06:00,46.4,36.0,30.16,South,180,0.4,0.4,67,0.00,,---,0.00,VWS V14.01,2013-02-18 21:06:00,
2013-02-18 13:11:00,46.4,36.0,30.16,South,180,0.4,0.4,67,0.00,,---,0.00,VWS V14.01,2013-02-18 21:11:00,
2013-02-18 13:16:00,46.4,36.0,30.16,South,180,0.4,0.4,67,0.00,,---,0.00,VWS V14.01,2013-02-18 21:16:00,
2013-02-18 13:23:00,46.4,36.0,30.16,South,180,0.4,0.4,67,0.00,,---,0.00,VWS V14.01,2013-02-18 21:23:00,
2013-02-18 13:30:00,46.4,36.0,30.16,South,180,0.4,0.4,67,0.00,,---,0.00,VWS V14.01,2013-02-18 21:30:00,
2013-02-18 13:35:00,46.4,36.0,30.16,South,180,0.4,0.4,67,0.00,,---,0.00,VWS V14.01,2013-02-18 21:35:00,
2013-02-18 13:41:00,46.4,36.0,30.16,South,180,0.4,0.4,67,0.00,,---,0.00,VWS V14.01,2013-02-18 21:41:00,
2013-02-18 13:51:00,46.4,36.0,30.16,South,180,0.4,0.4,67,0.00,,---,0.00,VWS V14.01,2013-02-18 21:51:00,
2013-02-18 13:56:00,46.4,36.0,30.16,South,180,0.4,0.4,67,0.00,,---,0.00,VWS V14.01,2013-02-18 21:56:00,
2013-02-18 14:01:00,45.9,36.0,30.14,South,180,0.9,1.8,68,0.00,,---,0.00,VWS V14.01,2013-02-18 22:01:00,
2013-02-18 14:06:00,45.9,35.6,30.14,South,180,1.1,1.1,67,0.00,,---,0.00,VWS V14.01,2013-02-18 22:06:00,
2013-02-18 14:11:00,46.1,36.5,30.14,South,180,1.1,1.1,69,0.00,,---,0.00,VWS V14.01,2013-02-18 22:11:00,
2013-02-18 14:16:00,46.1,36.1,30.14,South,180,1.1,1.1,68,0.00,,---,0.00,VWS V14.01,2013-02-18 22:16:00,
2013-02-18 14:21:00,45.9,36.0,30.14,South,180,0.0,0.0,68,0.00,,---,0.00,VWS V14.01,2013-02-18 22:21:00,
2013-02-18 14:26:00,45.7,35.4,30.14,South,180,0.4,1.8,67,0.00,,---,0.00,VWS V14.01,2013-02-18 22:26:00,
2013-02-18 14:31:00,45.7,35.8,30.13,South,180,0.2,0.2,68,0.00,,---,0.00,VWS V14.01,2013-02-18 22:31:00,
2013-02-18 14:36:00,45.4,34.7,30.13,South,180,1.8,1.8,66,0.00,,---,0.00,VWS V14.01,2013-02-18 22:36:00,
2013-02-18 14:41:00,45.4,35.5,30.13,South,180,1.3,1.3,68,0.00,,---,0.00,VWS V14.01,2013-02-18 22:41:00,
2013-02-18 14:46:00,45.4,34.7,30.13,South,180,2.5,3.6,66,0.00,,---,0.00,VWS V14.01,2013-02-18 22:46:00,
2013-02-18 14:51:00,45.4,35.1,30.13,South,180,3.4,3.4,67,0.00,,---,0.00,VWS V14.01,2013-02-18 22:51:00,
2013-02-18 14:56:00,45.4,35.5,30.13,South,180,1.1,2.5,68,0.00,,---,0.00,VWS V14.01,2013-02-18 22:56:00,
2013-02-18 15:01:00,45.5,35.6,30.12,South,180,1.8,1.8,68,0.00,,---,0.00,VWS V14.01,2013-02-18 23:01:00,
2013-02-18 15:06:00,45.7,35.8,30.12,South,180,0.4,0.4,68,0.00,,---,0.00,VWS V14.01,2013-02-18 23:06:00,
2013-02-18 15:11:00,45.7,35.8,30.12,South,180,0.0,1.6,68,0.00,,---,0.00,VWS V14.01,2013-02-18 23:11:00,
2013-02-18 15:16:00,45.7,35.4,30.12,South,180,1.1,1.1,67,0.00,,---,0.00,VWS V14.01,2013-02-18 23:16:00,
2013-02-18 15:21:00,45.5,34.0,30.12,South,180,1.8,1.8,64,0.00,,---,0.00,VWS V14.01,2013-02-18 23:21:00,
2013-02-18 15:26:00,45.7,34.6,30.12,South,180,0.7,0.7,65,0.00,,---,0.00,VWS V14.01,2013-02-18 23:26:00,
2013-02-18 15:31:00,45.7,35.4,30.12,South,180,1.1,1.1,67,0.00,,---,0.00,VWS V14.01,2013-02-18 23:31:00,
2013-02-18 15:36:00,45.9,35.6,30.11,South,180,3.6,3.6,67,0.00,,---,0.00,VWS V14.01,2013-02-18 23:36:00,
2013-02-18 15:41:00,45.9,35.2,30.11,South,180,1.1,1.1,66,0.00,,---,0.00,VWS V14.01,2013-02-18 23:41:00,
2013-02-18 15:46:00,45.9,35.2,30.11,South,180,0.2,0.2,66,0.00,,---,0.00,VWS V14.01,2013-02-18 23:46:00,
2013-02-18 15:51:00,45.7,35.0,30.11,South,180,3.6,3.6,66,0.00,,---,0.00,VWS V14.01,2013-02-18 23:51:00,
2013-02-18 15:56:00,45.7,34.6,30.11,South,180,6.7,6.7,65,0.00,,---,0.00,VWS V14.01,2013-02-18 23:56:00,
2013-02-18 16:01:00,45.7,35.4,30.10,South,180,0.0,0.0,67,0.00,,---,0.00,VWS V14.01,2013-02-19 00:01:00,
2013-02-18 16:04:00,45.7,35.0,30.10,South,180,0.0,0.0,66,0.00,,---,0.00,VWS V14.01,2013-02-19 00:04:00,
2013-02-18 16:06:00,45.7,35.0,30.10,South,180,0.0,0.0,66,0.00,,---,0.00,VWS V14.01,2013-02-19 00:06:00,
2013-02-18 16:11:00,45.7,35.0,30.10,South,180,0.0,0.0,66,0.00,,---,0.00,VWS V14.01,2013-02-19 00:11:00,
2013-02-18 16:17:00,45.7,35.0,30.10,South,180,0.0,0.0,66,0.00,,---,0.00,VWS V14.01,2013-02-19 00:17:00,
2013-02-18 16:28:00,45.7,35.0,30.10,South,180,0.0,0.0,66,0.00,,---,0.00,VWS V14.01,2013-02-19 00:28:00,
2013-02-18 16:34:00,45.7,35.0,30.10,South,180,0.0,0.0,66,0.00,,---,0.00,VWS V14.01,2013-02-19 00:34:00,
2013-02-18 16:44:00,45.7,35.0,30.10,South,180,0.0,0.0,66,0.00,,---,0.00,VWS V14.01,2013-02-19 00:44:00,
2013-02-18 16:53:00,45.7,35.0,30.10,South,180,0.0,0.0,66,0.00,,---,0.00,VWS V14.01,2013-02-19 00:53:00,
2013-02-18 16:59:00,44.6,35.1,30.08,South,180,1.1,1.1,69,0.00,,---,0.00,VWS V14.01,2013-02-19 00:59:00,
2013-02-18 17:03:00,44.6,35.1,30.08,South,180,0.0,0.0,69,0.00,,---,0.00,VWS V14.01,2013-02-19 01:03:00,
2013-02-18 17:04:00,44.6,35.1,30.08,South,180,0.0,0.0,69,0.00,,---,0.00,VWS V14.01,2013-02-19 01:04:00,
2013-02-18 17:09:00,44.6,35.1,30.08,South,180,0.0,0.0,69,0.00,,---,0.00,VWS V14.01,2013-02-19 01:09:00,
2013-02-18 17:19:00,44.6,35.1,30.08,South,180,0.0,0.0,69,0.00,,---,0.00,VWS V14.01,2013-02-19 01:19:00,
2013-02-18 17:36:00,44.6,35.1,30.08,South,180,0.0,0.0,69,0.00,,---,0.00,VWS V14.01,2013-02-19 01:36:00,
2013-02-18 17:50:00,44.6,35.1,30.08,South,180,0.0,0.0,69,0.00,,---,0.00,VWS V14.01,2013-02-19 01:50:00,
2013-02-18 17:55:00,44.6,35.1,30.08,South,180,0.0,0.0,69,0.00,,---,0.00,VWS V14.01,2013-02-19 01:55:00,
2013-02-18 18:00:00,43.2,34.1,30.06,South,180,1.1,1.1,70,0.00,,---,0.00,VWS V14.01,2013-02-19 02:00:00,
2013-02-18 18:05:00,43.2,34.1,30.06,South,180,0.2,2.5,70,0.00,,---,0.00,VWS V14.01,2013-02-19 02:05:00,
2013-02-18 18:10:00,43.2,34.1,30.06,South,180,2.2,2.2,70,0.00,,---,0.00,VWS V14.01,2013-02-19 02:10:00,
2013-02-18 18:15:00,43.0,34.2,30.06,South,180,0.0,1.8,71,0.00,,---,0.00,VWS V14.01,2013-02-19 02:15:00,
2013-02-18 18:20:00,43.0,34.2,30.05,South,180,2.2,2.2,71,0.00,,---,0.00,VWS V14.01,2013-02-19 02:20:00,
2013-02-18 18:25:00,43.0,34.2,30.05,South,180,2.0,2.0,71,0.00,,---,0.00,VWS V14.01,2013-02-19 02:25:00,
2013-02-18 18:30:00,43.0,34.2,30.05,South,180,0.0,1.8,71,0.00,,---,0.00,VWS V14.01,2013-02-19 02:30:00,
2013-02-18 18:35:00,42.8,33.7,30.05,South,180,0.4,0.4,70,0.00,,---,0.00,VWS V14.01,2013-02-19 02:35:00,
2013-02-18 18:40:00,42.8,34.1,30.05,South,180,0.0,0.0,71,0.00,,---,0.00,VWS V14.01,2013-02-19 02:40:00,
2013-02-18 18:45:00,42.8,34.1,30.05,South,180,0.0,0.0,71,0.00,,---,0.00,VWS V14.01,2013-02-19 02:45:00,
2013-02-18 18:50:00,42.8,33.7,30.04,South,180,1.8,1.8,70,0.00,,---,0.00,VWS V14.01,2013-02-19 02:50:00,
2013-02-18 18:55:00,42.8,34.1,30.04,South,180,0.0,0.0,71,0.00,,---,0.00,VWS V14.01,2013-02-19 02:55:00,
2013-02-18 19:00:00,42.8,33.7,30.04,South,180,0.0,0.0,70,0.00,,---,0.00,VWS V14.01,2013-02-19 03:00:00,
2013-02-18 19:06:00,42.7,34.0,30.04,South,180,0.0,0.0,71,0.00,,---,0.00,VWS V14.01,2013-02-19 03:06:00,
2013-02-18 19:11:00,42.5,33.8,30.04,South,180,0.4,0.4,71,0.00,,---,0.00,VWS V14.01,2013-02-19 03:11:00,
2013-02-18 19:16:00,42.5,33.8,30.04,South,180,0.4,0.4,71,0.00,,---,0.00,VWS V14.01,2013-02-19 03:16:00,
2013-02-18 19:21:00,42.3,33.6,30.03,South,180,0.0,0.0,71,0.00,,---,0.00,VWS V14.01,2013-02-19 03:21:00,
2013-02-18 19:26:00,42.1,33.7,30.03,South,180,0.0,0.0,72,0.00,,---,0.00,VWS V14.01,2013-02-19 03:26:00,
2013-02-18 19:31:00,41.9,33.5,30.03,South,180,0.7,0.7,72,0.00,,---,0.00,VWS V14.01,2013-02-19 03:31:00,
2013-02-18 19:36:00,41.8,33.8,30.03,South,180,0.0,0.0,73,0.00,,---,0.00,VWS V14.01,2013-02-19 03:36:00,
2013-02-18 19:41:00,41.8,34.1,30.02,South,180,0.0,0.0,74,0.00,,---,0.00,VWS V14.01,2013-02-19 03:41:00,
2013-02-18 19:46:00,41.4,33.8,30.02,South,180,1.6,1.6,74,0.00,,---,0.00,VWS V14.01,2013-02-19 03:46:00,
2013-02-18 19:51:00,41.4,33.8,30.03,South,180,0.0,0.0,74,0.00,,---,0.00,VWS V14.01,2013-02-19 03:51:00,
2013-02-18 19:56:00,41.2,33.9,30.03,South,180,1.1,1.1,75,0.00,,---,0.00,VWS V14.01,2013-02-19 03:56:00,
2013-02-18 20:01:00,41.0,34.0,30.02,South,180,0.0,0.0,76,0.00,,---,0.00,VWS V14.01,2013-02-19 04:01:00,
2013-02-18 20:06:00,40.9,33.9,30.02,South,180,0.4,0.4,76,0.00,,---,0.00,VWS V14.01,2013-02-19 04:06:00,
2013-02-18 20:11:00,40.7,33.7,30.02,South,180,0.4,0.4,76,0.00,,---,0.00,VWS V14.01,2013-02-19 04:11:00,
2013-02-18 20:16:00,40.5,33.9,30.02,South,180,2.5,2.5,77,0.00,,---,0.00,VWS V14.01,2013-02-19 04:16:00,
2013-02-18 20:21:00,40.1,33.5,30.01,South,180,0.4,0.4,77,0.00,,---,0.00,VWS V14.01,2013-02-19 04:21:00,
2013-02-18 20:26:00,40.0,33.4,30.01,South,180,0.9,0.9,77,0.00,,---,0.00,VWS V14.01,2013-02-19 04:26:00,
2013-02-18 20:31:00,39.8,33.2,30.01,South,180,0.0,0.0,77,0.00,,---,0.00,VWS V14.01,2013-02-19 04:31:00,
2013-02-18 20:36:00,39.4,33.1,30.01,South,180,0.0,0.2,78,0.00,,---,0.00,VWS V14.01,2013-02-19 04:36:00,
2013-02-18 20:41:00,39.4,33.4,30.01,South,180,0.4,0.4,79,0.00,,---,0.00,VWS V14.01,2013-02-19 04:41:00,
2013-02-18 20:46:00,39.2,33.2,30.01,South,180,1.8,1.8,79,0.00,,---,0.00,VWS V14.01,2013-02-19 04:46:00,
2013-02-18 20:51:00,39.2,33.2,30.01,South,180,0.4,0.4,79,0.00,,---,0.00,VWS V14.01,2013-02-19 04:51:00,
2013-02-18 20:56:00,38.9,33.0,30.01,South,180,0.0,0.0,79,0.00,,---,0.00,VWS V14.01,2013-02-19 04:56:00,
2013-02-18 21:00:00,38.9,33.0,30.01,South,180,0.0,0.0,79,0.00,,---,0.00,VWS V14.01,2013-02-19 05:00:00,
2013-02-18 21:05:00,38.9,33.0,30.01,South,180,0.7,0.7,79,0.00,,---,0.00,VWS V14.01,2013-02-19 05:05:00,
2013-02-18 21:10:00,38.7,32.8,30.01,South,180,0.0,0.0,79,0.00,,---,0.00,VWS V14.01,2013-02-19 05:10:00,
2013-02-18 21:15:00,38.5,32.9,30.01,South,180,0.4,0.4,80,0.00,,---,0.00,VWS V14.01,2013-02-19 05:15:00,
2013-02-18 21:20:00,38.5,32.9,30.01,South,180,1.3,1.3,80,0.00,,---,0.00,VWS V14.01,2013-02-19 05:20:00,
2013-02-18 21:25:00,38.5,32.9,30.01,South,180,0.0,0.0,80,0.00,,---,0.00,VWS V14.01,2013-02-19 05:25:00,
2013-02-18 21:30:00,38.5,32.9,30.01,South,180,0.0,0.0,80,0.00,,---,0.00,VWS V14.01,2013-02-19 05:30:00,
2013-02-18 21:35:00,38.5,33.2,30.01,South,180,0.2,1.1,81,0.00,,---,0.00,VWS V14.01,2013-02-19 05:35:00,
2013-02-18 21:40:00,38.5,33.5,30.01,South,180,0.9,1.8,82,0.00,,---,0.00,VWS V14.01,2013-02-19 05:40:00,
2013-02-18 21:45:00,38.5,33.5,30.01,South,180,0.0,0.0,82,0.00,,---,0.00,VWS V14.01,2013-02-19 05:45:00,
2013-02-18 21:50:00,38.5,33.5,30.01,South,180,0.7,0.7,82,0.00,,---,0.00,VWS V14.01,2013-02-19 05:50:00,
2013-02-18 21:55:00,38.5,33.2,30.01,South,180,0.0,0.0,81,0.00,,---,0.00,VWS V14.01,2013-02-19 05:55:00,
2013-02-18 22:00:00,38.5,33.5,30.01,South,180,0.0,0.0,82,0.00,,---,0.00,VWS V14.01,2013-02-19 06:00:00,
2013-02-18 22:05:00,38.5,33.5,30.01,South,180,0.0,0.0,82,0.00,,---,0.00,VWS V14.01,2013-02-19 06:05:00,
2013-02-18 22:10:00,38.5,33.5,30.00,South,180,0.0,0.0,82,0.00,,---,0.00,VWS V14.01,2013-02-19 06:10:00,
2013-02-18 22:15:00,38.5,33.5,30.00,South,180,0.0,0.0,82,0.00,,---,0.00,VWS V14.01,2013-02-19 06:15:00,
2013-02-18 22:20:00,38.5,33.5,30.00,South,180,0.0,0.0,82,0.00,,---,0.00,VWS V14.01,2013-02-19 06:20:00,
2013-02-18 22:25:00,38.5,33.5,30.00,South,180,0.0,0.0,82,0.00,,---,0.00,VWS V14.01,2013-02-19 06:25:00,
2013-02-18 22:30:00,38.5,33.5,30.00,South,180,0.4,0.4,82,0.00,,---,0.00,VWS V14.01,2013-02-19 06:30:00,
2013-02-18 22:35:00,38.5,33.8,30.00,South,180,2.2,2.2,83,0.00,,---,0.00,VWS V14.01,2013-02-19 06:35:00,
2013-02-18 22:40:00,38.5,33.5,29.99,South,180,0.0,0.0,82,0.00,,---,0.00,VWS V14.01,2013-02-19 06:40:00,
2013-02-18 22:45:00,38.5,33.5,29.99,South,180,0.9,0.9,82,0.00,,---,0.00,VWS V14.01,2013-02-19 06:45:00,
2013-02-18 22:50:00,38.5,33.8,29.99,South,180,0.0,0.0,83,0.00,,---,0.00,VWS V14.01,2013-02-19 06:50:00,
2013-02-18 22:55:00,38.5,33.8,29.99,South,180,0.7,0.7,83,0.00,,---,0.00,VWS V14.01,2013-02-19 06:55:00,
2013-02-18 23:00:00,38.5,34.1,29.99,South,180,1.6,1.6,84,0.00,,---,0.00,VWS V14.01,2013-02-19 07:00:00,
2013-02-18 23:01:00,40.1,34.8,29.98,South,180,1.8,2.5,81,0.00,,---,0.00,VWS V14.01,2013-02-19 07:01:00,
2013-02-18 23:02:00,40.3,34.6,29.98,South,180,2.0,2.0,80,0.00,,---,0.00,VWS V14.01,2013-02-19 07:02:00,
2013-02-18 23:03:00,40.5,34.8,29.98,South,180,2.7,2.7,80,0.00,,---,0.00,VWS V14.01,2013-02-19 07:03:00,
2013-02-18 23:04:00,40.7,34.7,29.98,South,180,2.7,2.7,79,0.00,,---,0.00,VWS V14.01,2013-02-19 07:04:00,
2013-02-18 23:05:00,38.5,34.1,29.99,South,180,0.0,0.0,84,0.00,,---,0.00,VWS V14.01,2013-02-19 07:05:00,
2013-02-18 23:06:00,40.7,35.0,29.98,South,180,0.4,2.7,80,0.00,,---,0.00,VWS V14.01,2013-02-19 07:06:00,
2013-02-18 23:07:00,40.9,35.2,29.98,South,180,0.4,0.4,80,0.00,,---,0.00,VWS V14.01,2013-02-19 07:07:00,
2013-02-18 23:08:00,40.9,35.2,29.98,South,180,0.4,0.4,80,0.00,,---,0.00,VWS V14.01,2013-02-19 07:08:00,
2013-02-18 23:09:00,40.9,35.2,29.98,South,180,0.4,0.4,80,0.00,,---,0.00,VWS V14.01,2013-02-19 07:09:00,
2013-02-18 23:10:00,38.7,34.3,29.99,South,180,0.0,0.0,84,0.00,,---,0.00,VWS V14.01,2013-02-19 07:10:00,
2013-02-18 23:11:00,40.9,34.9,29.98,South,180,1.3,1.3,79,0.00,,---,0.00,VWS V14.01,2013-02-19 07:11:00,
2013-02-18 23:12:00,41.0,35.0,29.98,South,180,1.3,1.3,79,0.00,,---,0.00,VWS V14.01,2013-02-19 07:12:00,
2013-02-18 23:13:00,41.0,35.0,29.98,South,180,1.3,1.3,79,0.00,,---,0.00,VWS V14.01,2013-02-19 07:13:00,
2013-02-18 23:14:00,41.0,35.0,29.98,South,180,1.6,1.6,79,0.00,,---,0.00,VWS V14.01,2013-02-19 07:14:00,
2013-02-18 23:15:00,38.9,34.2,29.99,South,180,0.9,0.9,83,0.00,,---,0.00,VWS V14.01,2013-02-19 07:15:00,
2013-02-18 23:16:00,41.0,34.7,29.98,South,180,2.2,2.2,78,0.00,,---,0.00,VWS V14.01,2013-02-19 07:16:00,
2013-02-18 23:17:00,41.0,34.7,29.97,South,180,2.2,2.2,78,0.00,,---,0.00,VWS V14.01,2013-02-19 07:17:00,
2013-02-18 23:18:00,41.0,34.3,29.97,South,180,1.6,2.2,77,0.00,,---,0.00,VWS V14.01,2013-02-19 07:18:00,
2013-02-18 23:19:00,41.0,34.7,29.97,South,180,1.6,1.6,78,0.00,,---,0.00,VWS V14.01,2013-02-19 07:19:00,
2013-02-18 23:20:00,38.9,34.2,29.99,South,180,0.0,1.6,83,0.00,,---,0.00,VWS V14.01,2013-02-19 07:20:00,
2013-02-18 23:21:00,40.9,34.6,29.97,South,180,0.9,1.6,78,0.00,,---,0.00,VWS V14.01,2013-02-19 07:21:00,
2013-02-18 23:22:00,41.0,34.7,29.98,South,180,1.1,1.1,78,0.00,,---,0.00,VWS V14.01,2013-02-19 07:22:00,
2013-02-18 23:23:00,40.9,34.6,29.97,South,180,1.1,1.1,78,0.00,,---,0.00,VWS V14.01,2013-02-19 07:23:00,
2013-02-18 23:24:00,40.9,34.6,29.97,South,180,1.1,1.1,78,0.00,,---,0.00,VWS V14.01,2013-02-19 07:24:00,
2013-02-18 23:25:00,38.9,34.5,29.99,South,180,0.0,0.0,84,0.00,,---,0.00,VWS V14.01,2013-02-19 07:25:00,
2013-02-18 23:26:00,40.9,34.3,29.97,NNW,338,3.6,3.6,77,0.00,,---,0.00,VWS V14.01,2013-02-19 07:26:00,
2013-02-18 23:27:00,40.9,34.3,29.97,NNW,338,3.6,3.6,77,0.00,,---,0.00,VWS V14.01,2013-02-19 07:27:00,
2013-02-18 23:28:00,40.9,34.3,29.97,East,90,2.5,3.6,77,0.00,,---,0.00,VWS V14.01,2013-02-19 07:28:00,
2013-02-18 23:29:00,41.0,34.3,29.97,NE,45,1.1,2.5,77,0.00,,---,0.00,VWS V14.01,2013-02-19 07:29:00,
2013-02-18 23:30:00,38.9,34.5,29.99,South,180,0.2,0.2,84,0.00,,---,0.00,VWS V14.01,2013-02-19 07:30:00,
2013-02-18 23:31:00,40.9,34.3,29.97,NNE,22,0.0,1.1,77,0.00,,---,0.00,VWS V14.01,2013-02-19 07:31:00,
2013-02-18 23:32:00,40.9,34.3,29.97,NNE,22,0.2,0.2,77,0.00,,---,0.00,VWS V14.01,2013-02-19 07:32:00,
2013-02-18 23:33:00,40.9,34.6,29.97,NNE,22,0.2,0.2,78,0.00,,---,0.00,VWS V14.01,2013-02-19 07:33:00,
2013-02-18 23:34:00,40.9,34.3,29.97,NNE,22,2.7,2.7,77,0.00,,---,0.00,VWS V14.01,2013-02-19 07:34:00,
2013-02-18 23:35:00,38.9,34.2,29.98,South,180,0.0,1.1,83,0.00,,---,0.00,VWS V14.01,2013-02-19 07:35:00,
2013-02-18 23:36:00,40.9,34.3,29.97,NNE,22,2.7,2.7,77,0.00,,---,0.00,VWS V14.01,2013-02-19 07:36:00,
2013-02-18 23:37:00,40.9,34.3,29.97,NNE,22,1.1,2.7,77,0.00,,---,0.00,VWS V14.01,2013-02-19 07:37:00,
2013-02-18 23:38:00,40.9,34.3,29.97,East,90,0.7,1.1,77,0.00,,---,0.00,VWS V14.01,2013-02-19 07:38:00,
2013-02-18 23:39:00,40.9,34.3,29.97,East,90,0.7,0.7,77,0.00,,---,0.00,VWS V14.01,2013-02-19 07:39:00,
2013-02-18 23:40:00,38.9,34.2,29.98,South,180,1.8,1.8,83,0.00,,---,0.00,VWS V14.01,2013-02-19 07:40:00,
2013-02-18 23:41:00,40.7,34.1,29.97,NNE,22,0.2,1.1,77,0.00,,---,0.00,VWS V14.01,2013-02-19 07:41:00,
2013-02-18 23:42:00,40.9,34.3,29.97,NNE,22,0.2,0.2,77,0.00,,---,0.00,VWS V14.01,2013-02-19 07:42:00,
2013-02-18 23:43:00,40.7,34.1,29.97,East,90,1.1,1.1,77,0.00,,---,0.00,VWS V14.01,2013-02-19 07:43:00,
2013-02-18 23:44:00,40.7,34.1,29.97,North,0,1.3,1.3,77,0.00,,---,0.00,VWS V14.01,2013-02-19 07:44:00,
2013-02-18 23:45:00,39.1,34.4,29.98,South,180,0.7,0.7,83,0.00,,---,0.00,VWS V14.01,2013-02-19 07:45:00,
2013-02-18 23:46:00,40.7,34.1,29.96,NNE,22,2.2,2.2,77,0.00,,---,0.00,VWS V14.01,2013-02-19 07:46:00,
2013-02-18 23:47:00,40.7,34.1,29.96,NNE,22,2.2,2.2,77,0.00,,---,0.00,VWS V14.01,2013-02-19 07:47:00,
2013-02-18 23:48:00,40.7,34.1,29.96,ENE,68,1.8,2.2,77,0.00,,---,0.00,VWS V14.01,2013-02-19 07:48:00,
2013-02-18 23:49:00,40.7,34.1,29.96,NNE,22,1.1,1.8,77,0.00,,---,0.00,VWS V14.01,2013-02-19 07:49:00,
2013-02-18 23:50:00,39.1,34.4,29.98,South,180,1.1,1.1,83,0.00,,---,0.00,VWS V14.01,2013-02-19 07:50:00,
2013-02-18 23:51:00,40.7,34.1,29.96,North,0,1.3,2.2,77,0.00,,---,0.00,VWS V14.01,2013-02-19 07:51:00,
2013-02-18 23:52:00,40.7,34.1,29.96,North,0,1.3,1.3,77,0.00,,---,0.00,VWS V14.01,2013-02-19 07:52:00,
2013-02-18 23:53:00,40.7,34.1,29.96,North,0,1.3,1.3,77,0.00,,---,0.00,VWS V14.01,2013-02-19 07:53:00,
2013-02-18 23:54:00,40.7,34.1,29.96,NE,45,2.2,2.2,77,0.00,,---,0.00,VWS V14.01,2013-02-19 07:54:00,
2013-02-18 23:55:00,39.4,34.4,29.98,South,180,0.7,0.9,82,0.00,,---,0.00,VWS V14.01,2013-02-19 07:55:00,
2013-02-18 23:56:00,40.7,34.1,29.96,NE,45,1.8,1.8,77,0.00,,---,0.00,VWS V14.01,2013-02-19 07:56:00,
2013-02-18 23:57:00,40.7,34.1,29.96,NE,45,1.8,1.8,77,0.00,,---,0.00,VWS V14.01,2013-02-19 07:57:00,
2013-02-18 23:58:00,40.7,34.4,29.96,NE,45,1.8,1.8,78,0.00,,---,0.00,VWS V14.01,2013-02-19 07:58:00,
2013-02-18 23:59:00,40.7,34.4,29.96,North,0,1.8,1.8,78,0.00,,---,0.00,VWS V14.01,2013-02-19 07:59:00,